QTR499 YSSY-YMML
Flight info
| Callsign | QTR499 |
|---|---|
| Flight time | 1h 9m |
| Altitude | 40000 |
| Route | KEVIN DCT WOL H65 LEECE Q29 BOOIN |
| Aircraft | A359/H-SDE2E3GHIJ3J4J5LM1ORWXY/LB1D1 |
Departure
| Time | 2026-05-06 05:24 |
|---|---|
| Airport | Sydney Kingsford Smith International Airport (YSSY) |
Arrival
| Time | 2026-05-06 06:33 |
|---|---|
| Airport | Melbourne Airport (YMML) |
| Time | Latitude | Longitude | Altitude | Speed | Heading |
|---|---|---|---|---|---|
| 2026-05-06 04:58 | -33.93858 | 151.16980 | 27 ft | 0 kts | 253° |
| 2026-05-06 05:12 | -33.93856 | 151.16987 | 34 ft | 2 kts | 253° |
| 2026-05-06 05:13 | -33.93853 | 151.17006 | 50 ft | 2 kts | 262° |
| 2026-05-06 05:13 | -33.93852 | 151.17026 | 27 ft | 2 kts | 273° |
| 2026-05-06 05:13 | -33.93854 | 151.17045 | 24 ft | 2 kts | 289° |
| 2026-05-06 05:13 | -33.93862 | 151.17062 | 24 ft | 2 kts | 311° |
| 2026-05-06 05:14 | -33.93874 | 151.17075 | 27 ft | 2 kts | 332° |
| 2026-05-06 05:14 | -33.93888 | 151.17082 | 26 ft | 1 kts | 344° |
| 2026-05-06 05:14 | -33.93891 | 151.17083 | 26 ft | 0 kts | 346° |
| 2026-05-06 05:17 | -33.93819 | 151.17064 | 27 ft | 20 kts | 347° |
| 2026-05-06 05:17 | -33.93714 | 151.17099 | 27 ft | 13 kts | 58° |
| 2026-05-06 05:17 | -33.93625 | 151.17132 | 27 ft | 17 kts | 351° |
| 2026-05-06 05:17 | -33.93484 | 151.17098 | 26 ft | 24 kts | 348° |
| 2026-05-06 05:18 | -33.93308 | 151.17023 | 27 ft | 30 kts | 319° |
| 2026-05-06 05:18 | -33.93141 | 151.16933 | 27 ft | 26 kts | 348° |
| 2026-05-06 05:18 | -33.93027 | 151.16916 | 27 ft | 0 kts | 12° |
| 2026-05-06 05:18 | -33.93018 | 151.16919 | 27 ft | 7 kts | 18° |
| 2026-05-06 05:19 | -33.92973 | 151.17006 | 30 ft | 15 kts | 76° |
| 2026-05-06 05:19 | -33.92971 | 151.17019 | 29 ft | 0 kts | 76° |
| 2026-05-06 05:19 | -33.92972 | 151.17016 | 28 ft | 0 kts | 76° |
| 2026-05-06 05:22 | -33.92966 | 151.17045 | 29 ft | 10 kts | 78° |
| 2026-05-06 05:23 | -33.92992 | 151.17161 | 27 ft | 20 kts | 144° |
| 2026-05-06 05:23 | -33.93112 | 151.17202 | 27 ft | 0 kts | 168° |
| 2026-05-06 05:23 | -33.93140 | 151.17210 | 28 ft | 22 kts | 168° |
| 2026-05-06 05:24 | -33.93563 | 151.17321 | 27 ft | 100 kts | 168° |
| 2026-05-06 05:24 | -33.94453 | 151.17553 | 31 ft | 160 kts | 167° |
| 2026-05-06 05:24 | -33.95647 | 151.17817 | 458 ft | 181 kts | 174° |
| 2026-05-06 05:24 | -33.96869 | 151.17943 | 1356 ft | 174 kts | 183° |
| 2026-05-06 05:25 | -33.98179 | 151.17764 | 1633 ft | 209 kts | 194° |
| 2026-05-06 05:25 | -33.99719 | 151.17378 | 1859 ft | 244 kts | 194° |
| 2026-05-06 05:25 | -34.01448 | 151.16951 | 2303 ft | 266 kts | 192° |
| 2026-05-06 05:25 | -34.03304 | 151.17061 | 3089 ft | 272 kts | 164° |
| 2026-05-06 05:26 | -34.05064 | 151.17854 | 4114 ft | 268 kts | 158° |
| 2026-05-06 05:26 | -34.06818 | 151.18689 | 5088 ft | 269 kts | 161° |
| 2026-05-06 05:26 | -34.08597 | 151.19389 | 5882 ft | 276 kts | 163° |
| 2026-05-06 05:26 | -34.10452 | 151.20052 | 6741 ft | 280 kts | 164° |
| 2026-05-06 05:27 | -34.12338 | 151.20711 | 7639 ft | 284 kts | 165° |
| 2026-05-06 05:27 | -34.14256 | 151.21362 | 8527 ft | 289 kts | 165° |
| 2026-05-06 05:27 | -34.16210 | 151.22017 | 9469 ft | 293 kts | 166° |
| 2026-05-06 05:27 | -34.18225 | 151.22442 | 10314 ft | 298 kts | 180° |
| 2026-05-06 05:28 | -34.20295 | 151.22036 | 10830 ft | 309 kts | 205° |
| 2026-05-06 05:28 | -34.22078 | 151.20598 | 11576 ft | 310 kts | 227° |
| 2026-05-06 05:28 | -34.23527 | 151.18670 | 12488 ft | 311 kts | 232° |
| 2026-05-06 05:28 | -34.24935 | 151.16667 | 13414 ft | 314 kts | 232° |
| 2026-05-06 05:29 | -34.26353 | 151.14654 | 14270 ft | 317 kts | 232° |
| 2026-05-06 05:29 | -34.27796 | 151.12616 | 15027 ft | 321 kts | 232° |
| 2026-05-06 05:29 | -34.29252 | 151.10546 | 15752 ft | 325 kts | 232° |
| 2026-05-06 05:29 | -34.30736 | 151.08454 | 16504 ft | 329 kts | 231° |
| 2026-05-06 05:30 | -34.32244 | 151.06349 | 17256 ft | 333 kts | 231° |
| 2026-05-06 05:30 | -34.33767 | 151.04205 | 17985 ft | 338 kts | 232° |
| 2026-05-06 05:30 | -34.35299 | 151.02032 | 18685 ft | 342 kts | 232° |
| 2026-05-06 05:30 | -34.36867 | 150.99847 | 19382 ft | 346 kts | 230° |
| 2026-05-06 05:31 | -34.38606 | 150.97791 | 19926 ft | 356 kts | 225° |
| 2026-05-06 05:31 | -34.40479 | 150.95742 | 20253 ft | 372 kts | 225° |
| 2026-05-06 05:31 | -34.42448 | 150.93609 | 20596 ft | 386 kts | 225° |
| 2026-05-06 05:31 | -34.44475 | 150.91416 | 21132 ft | 393 kts | 225° |
| 2026-05-06 05:32 | -34.46528 | 150.89196 | 21798 ft | 398 kts | 225° |
| 2026-05-06 05:32 | -34.48598 | 150.86957 | 22476 ft | 402 kts | 225° |
| 2026-05-06 05:32 | -34.50694 | 150.84685 | 23162 ft | 405 kts | 225° |
| 2026-05-06 05:32 | -34.52803 | 150.82395 | 23816 ft | 409 kts | 225° |
| 2026-05-06 05:33 | -34.54914 | 150.80052 | 24359 ft | 412 kts | 227° |
| 2026-05-06 05:33 | -34.56823 | 150.77460 | 24882 ft | 414 kts | 234° |
| 2026-05-06 05:33 | -34.58599 | 150.74698 | 25435 ft | 417 kts | 236° |
| 2026-05-06 05:33 | -34.60328 | 150.71854 | 25984 ft | 420 kts | 237° |
| 2026-05-06 05:34 | -34.62046 | 150.68958 | 26516 ft | 424 kts | 237° |
| 2026-05-06 05:34 | -34.63772 | 150.66033 | 27028 ft | 429 kts | 237° |
| 2026-05-06 05:34 | -34.65518 | 150.63083 | 27545 ft | 433 kts | 237° |
| 2026-05-06 05:34 | -34.67291 | 150.60102 | 27964 ft | 437 kts | 237° |
| 2026-05-06 05:35 | -34.70865 | 150.54133 | 28064 ft | 437 kts | 237° |
| 2026-05-06 05:35 | -34.74458 | 150.48145 | 28068 ft | 438 kts | 237° |
| 2026-05-06 05:36 | -34.78051 | 150.42148 | 28061 ft | 439 kts | 237° |
| 2026-05-06 05:36 | -34.81641 | 150.36144 | 28068 ft | 439 kts | 237° |
| 2026-05-06 05:37 | -34.85201 | 150.30176 | 28066 ft | 438 kts | 237° |
| 2026-05-06 05:37 | -34.88800 | 150.24130 | 28060 ft | 438 kts | 237° |
| 2026-05-06 05:38 | -34.92349 | 150.18160 | 28061 ft | 438 kts | 237° |
| 2026-05-06 05:38 | -34.95942 | 150.12103 | 28063 ft | 439 kts | 237° |
| 2026-05-06 05:39 | -34.99485 | 150.06122 | 28064 ft | 438 kts | 237° |
| 2026-05-06 05:39 | -35.03049 | 150.00096 | 28064 ft | 438 kts | 237° |
| 2026-05-06 05:40 | -35.06607 | 149.94079 | 28067 ft | 437 kts | 237° |
| 2026-05-06 05:40 | -35.10164 | 149.88050 | 28061 ft | 437 kts | 237° |
| 2026-05-06 05:41 | -35.13712 | 149.82012 | 28076 ft | 438 kts | 237° |
| 2026-05-06 05:41 | -35.17256 | 149.75967 | 28075 ft | 437 kts | 237° |
| 2026-05-06 05:42 | -35.20793 | 149.69921 | 28080 ft | 437 kts | 237° |
| 2026-05-06 05:42 | -35.24326 | 149.63882 | 28075 ft | 437 kts | 237° |
| 2026-05-06 05:43 | -35.27851 | 149.57822 | 28096 ft | 434 kts | 246° |
| 2026-05-06 05:43 | -35.31097 | 149.51598 | 28086 ft | 436 kts | 240° |
| 2026-05-06 05:44 | -35.34750 | 149.45658 | 28089 ft | 437 kts | 236° |
| 2026-05-06 05:44 | -35.38401 | 149.39698 | 28094 ft | 437 kts | 237° |
| 2026-05-06 05:45 | -35.41961 | 149.33663 | 28108 ft | 436 kts | 238° |
| 2026-05-06 05:45 | -35.45474 | 149.27599 | 28097 ft | 436 kts | 238° |
| 2026-05-06 05:46 | -35.48975 | 149.21530 | 28090 ft | 435 kts | 238° |
| 2026-05-06 05:46 | -35.52500 | 149.15535 | 28089 ft | 436 kts | 236° |
| 2026-05-06 05:47 | -35.56050 | 149.09508 | 28080 ft | 436 kts | 237° |
| 2026-05-06 05:47 | -35.57804 | 149.06462 | 28290 ft | 437 kts | 238° |
| 2026-05-06 05:47 | -35.59558 | 149.03392 | 28803 ft | 439 kts | 238° |
| 2026-05-06 05:48 | -35.61317 | 149.00308 | 29338 ft | 442 kts | 238° |
| 2026-05-06 05:48 | -35.63093 | 148.97204 | 29825 ft | 446 kts | 238° |
| 2026-05-06 05:48 | -35.64888 | 148.94075 | 30291 ft | 449 kts | 238° |
| 2026-05-06 05:48 | -35.66693 | 148.90931 | 30681 ft | 452 kts | 238° |
| 2026-05-06 05:49 | -35.68514 | 148.87759 | 31038 ft | 456 kts | 238° |
| 2026-05-06 05:49 | -35.70347 | 148.84562 | 31416 ft | 459 kts | 238° |
| 2026-05-06 05:49 | -35.72187 | 148.81347 | 31796 ft | 461 kts | 238° |
| 2026-05-06 05:49 | -35.74043 | 148.78100 | 32045 ft | 466 kts | 238° |
| 2026-05-06 05:50 | -35.77829 | 148.71453 | 32066 ft | 480 kts | 239° |
| 2026-05-06 05:50 | -35.81610 | 148.64697 | 32074 ft | 479 kts | 240° |
| 2026-05-06 05:51 | -35.85394 | 148.57934 | 32098 ft | 478 kts | 240° |
| 2026-05-06 05:51 | -35.89192 | 148.51208 | 32080 ft | 478 kts | 239° |
| 2026-05-06 05:52 | -35.92987 | 148.44483 | 32081 ft | 478 kts | 239° |
| 2026-05-06 05:52 | -35.96771 | 148.37748 | 32080 ft | 477 kts | 239° |
| 2026-05-06 05:53 | -36.00549 | 148.31012 | 32092 ft | 477 kts | 240° |
| 2026-05-06 05:53 | -36.04321 | 148.24282 | 32105 ft | 476 kts | 240° |
| 2026-05-06 05:54 | -36.08088 | 148.17547 | 32102 ft | 477 kts | 240° |
| 2026-05-06 05:54 | -36.11856 | 148.10796 | 32108 ft | 478 kts | 240° |
| 2026-05-06 05:55 | -36.15642 | 148.04031 | 32112 ft | 478 kts | 240° |
| 2026-05-06 05:55 | -36.19419 | 147.97269 | 32114 ft | 478 kts | 240° |
| 2026-05-06 05:56 | -36.23168 | 147.90540 | 32113 ft | 477 kts | 240° |
| 2026-05-06 05:56 | -36.26325 | 147.84866 | 32117 ft | 477 kts | 240° |
| 2026-05-06 05:57 | -36.30695 | 147.76995 | 32116 ft | 477 kts | 240° |
| 2026-05-06 05:57 | -36.34457 | 147.70218 | 32126 ft | 477 kts | 240° |
| 2026-05-06 05:58 | -36.37608 | 147.64542 | 32126 ft | 477 kts | 240° |
| 2026-05-06 05:58 | -36.41344 | 147.57770 | 32134 ft | 476 kts | 240° |
| 2026-05-06 05:59 | -36.45078 | 147.50972 | 32115 ft | 476 kts | 240° |
| 2026-05-06 05:59 | -36.48798 | 147.44185 | 32121 ft | 475 kts | 240° |
| 2026-05-06 06:00 | -36.52516 | 147.37392 | 32125 ft | 479 kts | 240° |
| 2026-05-06 06:00 | -36.56300 | 147.30455 | 32125 ft | 488 kts | 241° |
| 2026-05-06 06:01 | -36.60091 | 147.23508 | 32128 ft | 488 kts | 241° |
| 2026-05-06 06:01 | -36.63899 | 147.16515 | 32128 ft | 488 kts | 241° |
| 2026-05-06 06:02 | -36.67707 | 147.09502 | 32143 ft | 488 kts | 241° |
| 2026-05-06 06:02 | -36.71507 | 147.02491 | 32132 ft | 488 kts | 241° |
| 2026-05-06 06:03 | -36.75293 | 146.95490 | 32130 ft | 487 kts | 241° |
| 2026-05-06 06:03 | -36.79079 | 146.88471 | 32138 ft | 487 kts | 241° |
| 2026-05-06 06:04 | -36.80950 | 146.85006 | 32140 ft | 474 kts | 241° |
| 2026-05-06 06:04 | -36.82768 | 146.81644 | 31859 ft | 463 kts | 242° |
| 2026-05-06 06:04 | -36.84562 | 146.78315 | 30912 ft | 465 kts | 242° |
| 2026-05-06 06:04 | -36.86377 | 146.74922 | 29824 ft | 471 kts | 242° |
| 2026-05-06 06:05 | -36.88184 | 146.71544 | 29142 ft | 465 kts | 242° |
| 2026-05-06 06:05 | -36.89974 | 146.68203 | 28513 ft | 460 kts | 242° |
| 2026-05-06 06:05 | -36.91738 | 146.64907 | 27913 ft | 454 kts | 242° |
| 2026-05-06 06:05 | -36.93481 | 146.61637 | 27294 ft | 449 kts | 242° |
| 2026-05-06 06:06 | -36.95201 | 146.58404 | 26696 ft | 444 kts | 242° |
| 2026-05-06 06:06 | -36.96901 | 146.55211 | 26077 ft | 439 kts | 242° |
| 2026-05-06 06:06 | -36.98586 | 146.52048 | 25472 ft | 435 kts | 243° |
| 2026-05-06 06:06 | -37.00258 | 146.48909 | 24874 ft | 431 kts | 243° |
| 2026-05-06 06:07 | -37.01914 | 146.45799 | 24273 ft | 427 kts | 242° |
| 2026-05-06 06:07 | -37.03556 | 146.42718 | 23665 ft | 424 kts | 243° |
| 2026-05-06 06:07 | -37.05177 | 146.39671 | 22992 ft | 419 kts | 242° |
| 2026-05-06 06:07 | -37.06781 | 146.36646 | 22397 ft | 414 kts | 242° |
| 2026-05-06 06:08 | -37.08341 | 146.33701 | 21809 ft | 409 kts | 242° |
| 2026-05-06 06:08 | -37.09904 | 146.30752 | 21217 ft | 404 kts | 242° |
| 2026-05-06 06:08 | -37.11443 | 146.27844 | 20613 ft | 399 kts | 242° |
| 2026-05-06 06:08 | -37.12970 | 146.24952 | 20020 ft | 396 kts | 242° |
| 2026-05-06 06:09 | -37.14485 | 146.22080 | 19425 ft | 393 kts | 241° |
| 2026-05-06 06:09 | -37.15986 | 146.19233 | 18822 ft | 390 kts | 241° |
| 2026-05-06 06:09 | -37.17474 | 146.16412 | 18194 ft | 387 kts | 241° |
| 2026-05-06 06:09 | -37.18953 | 146.13607 | 17555 ft | 383 kts | 241° |
| 2026-05-06 06:10 | -37.20414 | 146.10835 | 16950 ft | 379 kts | 241° |
| 2026-05-06 06:10 | -37.21862 | 146.08085 | 16329 ft | 375 kts | 241° |
| 2026-05-06 06:10 | -37.23289 | 146.05379 | 15729 ft | 371 kts | 240° |
| 2026-05-06 06:10 | -37.24714 | 146.02687 | 15142 ft | 368 kts | 241° |
| 2026-05-06 06:11 | -37.26117 | 146.00025 | 14532 ft | 363 kts | 241° |
| 2026-05-06 06:11 | -37.27500 | 145.97386 | 13938 ft | 361 kts | 241° |
| 2026-05-06 06:11 | -37.28862 | 145.94780 | 13295 ft | 357 kts | 241° |
| 2026-05-06 06:11 | -37.30215 | 145.92188 | 12721 ft | 353 kts | 241° |
| 2026-05-06 06:12 | -37.31531 | 145.89673 | 12131 ft | 350 kts | 241° |
| 2026-05-06 06:12 | -37.32863 | 145.87131 | 11557 ft | 347 kts | 241° |
| 2026-05-06 06:12 | -37.34187 | 145.84607 | 10978 ft | 344 kts | 240° |
| 2026-05-06 06:12 | -37.35485 | 145.82138 | 10714 ft | 330 kts | 241° |
| 2026-05-06 06:13 | -37.36721 | 145.79789 | 10579 ft | 314 kts | 241° |
| 2026-05-06 06:13 | -37.37893 | 145.77555 | 10445 ft | 299 kts | 241° |
| 2026-05-06 06:13 | -37.39011 | 145.75420 | 10311 ft | 285 kts | 241° |
| 2026-05-06 06:13 | -37.40078 | 145.73388 | 10195 ft | 272 kts | 241° |
| 2026-05-06 06:14 | -37.41094 | 145.71445 | 10046 ft | 260 kts | 241° |
| 2026-05-06 06:14 | -37.42088 | 145.69535 | 9933 ft | 263 kts | 242° |
| 2026-05-06 06:14 | -37.43092 | 145.67596 | 9661 ft | 266 kts | 241° |
| 2026-05-06 06:14 | -37.44103 | 145.65657 | 9277 ft | 264 kts | 242° |
| 2026-05-06 06:15 | -37.45105 | 145.63720 | 9028 ft | 263 kts | 242° |
| 2026-05-06 06:15 | -37.46108 | 145.61788 | 8989 ft | 264 kts | 242° |
| 2026-05-06 06:15 | -37.47118 | 145.59859 | 9026 ft | 264 kts | 241° |
| 2026-05-06 06:15 | -37.48128 | 145.57934 | 9025 ft | 263 kts | 241° |
| 2026-05-06 06:16 | -37.49124 | 145.56037 | 9025 ft | 263 kts | 240° |
| 2026-05-06 06:16 | -37.50137 | 145.54120 | 9028 ft | 264 kts | 240° |
| 2026-05-06 06:16 | -37.51151 | 145.52200 | 9015 ft | 263 kts | 240° |
| 2026-05-06 06:16 | -37.52171 | 145.50265 | 9016 ft | 262 kts | 240° |
| 2026-05-06 06:17 | -37.53163 | 145.48378 | 9018 ft | 261 kts | 240° |
| 2026-05-06 06:17 | -37.54165 | 145.46465 | 9015 ft | 261 kts | 240° |
| 2026-05-06 06:17 | -37.55170 | 145.44553 | 8984 ft | 262 kts | 240° |
| 2026-05-06 06:17 | -37.56166 | 145.42652 | 8728 ft | 258 kts | 240° |
| 2026-05-06 06:18 | -37.57149 | 145.40763 | 8209 ft | 260 kts | 240° |
| 2026-05-06 06:18 | -37.58147 | 145.38851 | 7700 ft | 262 kts | 240° |
| 2026-05-06 06:18 | -37.59147 | 145.36932 | 7219 ft | 261 kts | 240° |
| 2026-05-06 06:18 | -37.60138 | 145.35030 | 6804 ft | 258 kts | 239° |
| 2026-05-06 06:19 | -37.61118 | 145.33153 | 6427 ft | 256 kts | 240° |
| 2026-05-06 06:19 | -37.62091 | 145.31283 | 6053 ft | 252 kts | 240° |
| 2026-05-06 06:19 | -37.63037 | 145.29470 | 5853 ft | 243 kts | 240° |
| 2026-05-06 06:19 | -37.63950 | 145.27717 | 5645 ft | 235 kts | 240° |
| 2026-05-06 06:20 | -37.64832 | 145.26024 | 5286 ft | 227 kts | 240° |
| 2026-05-06 06:20 | -37.65686 | 145.24397 | 5032 ft | 220 kts | 240° |
| 2026-05-06 06:20 | -37.66525 | 145.22778 | 4995 ft | 221 kts | 240° |
| 2026-05-06 06:20 | -37.67374 | 145.21141 | 5004 ft | 222 kts | 240° |
| 2026-05-06 06:21 | -37.68217 | 145.19519 | 4994 ft | 220 kts | 240° |
| 2026-05-06 06:21 | -37.69053 | 145.17905 | 4993 ft | 219 kts | 240° |
| 2026-05-06 06:21 | -37.69886 | 145.16299 | 4988 ft | 219 kts | 240° |
| 2026-05-06 06:21 | -37.70720 | 145.14687 | 4987 ft | 219 kts | 240° |
| 2026-05-06 06:22 | -37.71557 | 145.13082 | 4986 ft | 219 kts | 240° |
| 2026-05-06 06:22 | -37.72319 | 145.11428 | 4984 ft | 217 kts | 250° |
| 2026-05-06 06:22 | -37.72618 | 145.09595 | 4989 ft | 213 kts | 267° |
| 2026-05-06 06:22 | -37.72681 | 145.07732 | 4990 ft | 213 kts | 269° |
| 2026-05-06 06:23 | -37.72721 | 145.05882 | 4983 ft | 205 kts | 269° |
| 2026-05-06 06:23 | -37.72761 | 145.04126 | 4944 ft | 198 kts | 269° |
| 2026-05-06 06:23 | -37.72805 | 145.02395 | 4821 ft | 196 kts | 269° |
| 2026-05-06 06:23 | -37.72853 | 145.00666 | 4683 ft | 198 kts | 269° |
| 2026-05-06 06:24 | -37.72900 | 144.98929 | 4565 ft | 198 kts | 270° |
| 2026-05-06 06:24 | -37.72940 | 144.97193 | 4415 ft | 198 kts | 270° |
| 2026-05-06 06:24 | -37.72983 | 144.95459 | 4301 ft | 197 kts | 270° |
| 2026-05-06 06:24 | -37.73029 | 144.93735 | 4187 ft | 196 kts | 270° |
| 2026-05-06 06:25 | -37.73076 | 144.92014 | 4049 ft | 196 kts | 270° |
| 2026-05-06 06:25 | -37.73123 | 144.90297 | 3927 ft | 196 kts | 271° |
| 2026-05-06 06:25 | -37.73639 | 144.86942 | 3661 ft | 202 kts | 242° |
| 2026-05-06 06:26 | -37.74713 | 144.85754 | 3553 ft | 216 kts | 211° |
| 2026-05-06 06:26 | -37.76221 | 144.85445 | 3442 ft | 226 kts | 181° |
| 2026-05-06 06:26 | -37.77783 | 144.85711 | 3309 ft | 228 kts | 175° |
| 2026-05-06 06:26 | -37.79353 | 144.86050 | 3180 ft | 229 kts | 174° |
| 2026-05-06 06:27 | -37.80908 | 144.86217 | 3049 ft | 222 kts | 192° |
| 2026-05-06 06:27 | -37.82236 | 144.85431 | 2993 ft | 207 kts | 228° |
| 2026-05-06 06:27 | -37.83403 | 144.84426 | 2953 ft | 203 kts | 201° |
| 2026-05-06 06:27 | -37.84763 | 144.84585 | 2931 ft | 208 kts | 155° |
| 2026-05-06 06:28 | -37.85729 | 144.85974 | 2829 ft | 213 kts | 110° |
| 2026-05-06 06:28 | -37.85724 | 144.87759 | 2538 ft | 197 kts | 61° |
| 2026-05-06 06:28 | -37.84856 | 144.88788 | 2461 ft | 156 kts | 9° |
| 2026-05-06 06:28 | -37.83973 | 144.88526 | 2468 ft | 128 kts | 313° |
| 2026-05-06 06:29 | -37.83441 | 144.87619 | 2494 ft | 131 kts | 300° |
| 2026-05-06 06:29 | -37.83022 | 144.86584 | 2492 ft | 133 kts | 303° |
| 2026-05-06 06:29 | -37.82299 | 144.85847 | 2490 ft | 137 kts | 333° |
| 2026-05-06 06:29 | -37.81340 | 144.85710 | 2496 ft | 144 kts | 3° |
| 2026-05-06 06:30 | -37.80360 | 144.85943 | 2474 ft | 141 kts | 354° |
| 2026-05-06 06:30 | -37.79384 | 144.85904 | 2301 ft | 139 kts | 351° |
| 2026-05-06 06:30 | -37.78426 | 144.85802 | 2113 ft | 138 kts | 349° |
| 2026-05-06 06:30 | -37.77473 | 144.85672 | 1928 ft | 137 kts | 348° |
| 2026-05-06 06:31 | -37.76525 | 144.85527 | 1766 ft | 137 kts | 347° |
| 2026-05-06 06:31 | -37.75585 | 144.85374 | 1580 ft | 136 kts | 347° |
| 2026-05-06 06:31 | -37.74644 | 144.85216 | 1406 ft | 137 kts | 348° |
| 2026-05-06 06:31 | -37.73695 | 144.85067 | 1234 ft | 138 kts | 349° |
| 2026-05-06 06:32 | -37.72764 | 144.84905 | 1102 ft | 134 kts | 350° |
| 2026-05-06 06:32 | -37.71852 | 144.84742 | 966 ft | 132 kts | 348° |
| 2026-05-06 06:32 | -37.70944 | 144.84580 | 852 ft | 131 kts | 347° |
| 2026-05-06 06:32 | -37.70026 | 144.84401 | 692 ft | 135 kts | 348° |
| 2026-05-06 06:33 | -37.69104 | 144.84206 | 545 ft | 135 kts | 348° |
| 2026-05-06 06:33 | -37.68177 | 144.84032 | 407 ft | 133 kts | 348° |
| 2026-05-06 06:33 | -37.67303 | 144.83861 | 379 ft | 115 kts | 351° |
| 2026-05-06 06:33 | -37.66780 | 144.83763 | 392 ft | 33 kts | 351° |
| 2026-05-06 06:34 | -37.66574 | 144.83757 | 393 ft | 28 kts | 26° |
| 2026-05-06 06:34 | -37.66514 | 144.83928 | 393 ft | 0 kts | 92° |
| 2026-05-06 06:34 | -37.66514 | 144.83929 | 393 ft | 1 kts | 92° |
| 2026-05-06 06:34 | -37.66519 | 144.84017 | 388 ft | 19 kts | 95° |
| 2026-05-06 06:35 | -37.66637 | 144.84162 | 382 ft | 31 kts | 170° |
| 2026-05-06 06:35 | -37.66852 | 144.84203 | 381 ft | 34 kts | 171° |
| 2026-05-06 06:35 | -37.67034 | 144.84255 | 377 ft | 25 kts | 145° |
| 2026-05-06 06:35 | -37.67055 | 144.84360 | 377 ft | 8 kts | 77° |
| 2026-05-06 06:36 | -37.67029 | 144.84448 | 372 ft | 13 kts | 56° |
| 2026-05-06 06:36 | -37.66935 | 144.84506 | 367 ft | 14 kts | 13° |
| 2026-05-06 06:36 | -37.66921 | 144.84511 | 369 ft | 0 kts | 13° |